sensor_id;sensor_type;location;lat;lon;timestamp;pressure;altitude;pressure_sealevel;temperature;humidity
21109;BME280;10712;52.944;9.098;2023-07-02T00:00:07;100326.13;;;23.85;62.59
21109;BME280;10712;52.944;9.098;2023-07-02T00:02:37;100309.78;;;23.85;62.39
21109;BME280;10712;52.944;9.098;2023-07-02T00:05:03;100304.34;;;23.85;62.51
21109;BME280;10712;52.944;9.098;2023-07-02T00:07:30;100316.91;;;23.86;62.29
21109;BME280;10712;52.944;9.098;2023-07-02T00:09:56;100318.97;;;23.84;62.39
21109;BME280;10712;52.944;9.098;2023-07-02T00:12:22;100310.16;;;23.82;62.81
21109;BME280;10712;52.944;9.098;2023-07-02T00:14:48;100315.59;;;23.82;62.96
21109;BME280;10712;52.944;9.098;2023-07-02T00:17:14;100297.22;;;23.84;62.96
21109;BME280;10712;52.944;9.098;2023-07-02T00:19:40;100303.69;;;23.83;63.09
21109;BME280;10712;52.944;9.098;2023-07-02T00:22:10;100306.59;;;23.81;62.88
21109;BME280;10712;52.944;9.098;2023-07-02T00:24:36;100300.03;;;23.76;63.28
21109;BME280;10712;52.944;9.098;2023-07-02T00:27:03;100303.75;;;23.75;63.33
21109;BME280;10712;52.944;9.098;2023-07-02T00:29:29;100302.34;;;23.79;62.90
21109;BME280;10712;52.944;9.098;2023-07-02T00:31:55;100310.50;;;23.79;63.04
21109;BME280;10712;52.944;9.098;2023-07-02T00:34:22;100315.13;;;23.78;63.25
21109;BME280;10712;52.944;9.098;2023-07-02T00:36:48;100309.88;;;23.77;63.06
21109;BME280;10712;52.944;9.098;2023-07-02T00:39:15;100306.47;;;23.75;63.17
21109;BME280;10712;52.944;9.098;2023-07-02T00:41:43;100307.78;;;23.79;63.08
21109;BME280;10712;52.944;9.098;2023-07-02T00:44:13;100309.31;;;23.81;63.37
21109;BME280;10712;52.944;9.098;2023-07-02T00:46:39;100311.84;;;23.83;63.00
21109;BME280;10712;52.944;9.098;2023-07-02T00:49:07;100309.78;;;23.85;63.27
21109;BME280;10712;52.944;9.098;2023-07-02T00:51:33;100307.06;;;23.85;63.40
21109;BME280;10712;52.944;9.098;2023-07-02T00:54:00;100305.38;;;23.84;63.18
21109;BME280;10712;52.944;9.098;2023-07-02T00:56:27;100297.22;;;23.84;63.20
21109;BME280;10712;52.944;9.098;2023-07-02T00:58:54;100304.72;;;23.82;63.02
21109;BME280;10712;52.944;9.098;2023-07-02T01:01:26;100290.72;;;23.70;63.33
21109;BME280;10712;52.944;9.098;2023-07-02T01:04:04;100295.59;;;23.75;63.24
21109;BME280;10712;52.944;9.098;2023-07-02T01:06:36;100289.81;;;23.78;63.33
21109;BME280;10712;52.944;9.098;2023-07-02T01:09:06;100289.81;;;23.78;62.94
21109;BME280;10712;52.944;9.098;2023-07-02T01:11:39;100291.28;;;23.80;63.12
21109;BME280;10712;52.944;9.098;2023-07-02T01:14:33;100291.19;;;23.74;63.30
21109;BME280;10712;52.944;9.098;2023-07-02T01:17:03;100294.56;;;23.76;63.01
21109;BME280;10712;52.944;9.098;2023-07-02T01:19:50;100290.16;;;23.75;62.87
21109;BME280;10712;52.944;9.098;2023-07-02T01:22:22;100290.44;;;23.80;62.67
21109;BME280;10712;52.944;9.098;2023-07-02T01:24:49;100286.25;;;23.77;62.88
21109;BME280;10712;52.944;9.098;2023-07-02T01:27:18;100286.69;;;23.81;62.97
21109;BME280;10712;52.944;9.098;2023-07-02T01:29:47;100294.84;;;23.81;62.59
21109;BME280;10712;52.944;9.098;2023-07-02T01:32:16;100297.56;;;23.81;62.98
21109;BME280;10712;52.944;9.098;2023-07-02T01:34:42;100291.13;;;23.82;62.85
21109;BME280;10712;52.944;9.098;2023-07-02T01:37:15;100291.56;;;23.71;63.06
21109;BME280;10712;52.944;9.098;2023-07-02T01:39:42;100296.44;;;23.75;62.85
21109;BME280;10712;52.944;9.098;2023-07-02T01:42:14;100294.19;;;23.79;62.92
21109;BME280;10712;52.944;9.098;2023-07-02T01:44:44;100297.97;;;23.78;62.88
21109;BME280;10712;52.944;9.098;2023-07-02T01:47:10;100297.13;;;23.77;63.00
21109;BME280;10712;52.944;9.098;2023-07-02T01:49:37;100297.56;;;23.81;62.70
21109;BME280;10712;52.944;9.098;2023-07-02T01:52:04;100293.38;;;23.78;62.60
21109;BME280;10712;52.944;9.098;2023-07-02T01:54:31;100293.72;;;23.75;62.71
21109;BME280;10712;52.944;9.098;2023-07-02T01:56:58;100301.72;;;23.77;62.29
21109;BME280;10712;52.944;9.098;2023-07-02T01:59:24;100301.53;;;23.78;62.49
21109;BME280;10712;52.944;9.098;2023-07-02T02:01:50;100304.34;;;23.85;62.12
21109;BME280;10712;52.944;9.098;2023-07-02T02:04:17;100302.84;;;23.82;61.92
21109;BME280;10712;52.944;9.098;2023-07-02T02:06:43;100307.06;;;23.85;61.75
21109;BME280;10712;52.944;9.098;2023-07-02T02:09:11;100303.00;;;23.81;61.92
21109;BME280;10712;52.944;9.098;2023-07-02T02:11:43;100299.44;;;23.80;61.78
21109;BME280;10712;52.944;9.098;2023-07-02T02:14:09;100309.47;;;23.80;61.30
21109;BME280;10712;52.944;9.098;2023-07-02T02:16:35;100303.75;;;23.75;60.89
21109;BME280;10712;52.944;9.098;2023-07-02T02:19:03;100310.22;;;23.74;60.72
21109;BME280;10712;52.944;9.098;2023-07-02T02:21:29;100315.94;;;23.79;60.59
21109;BME280;10712;52.944;9.098;2023-07-02T02:23:55;100317.00;;;23.78;60.20
21109;BME280;10712;52.944;9.098;2023-07-02T02:26:21;100319.41;;;23.73;60.32
21109;BME280;10712;52.944;9.098;2023-07-02T02:28:48;100324.31;;;23.77;59.85
21109;BME280;10712;52.944;9.098;2023-07-02T02:31:15;100321.72;;;23.84;59.14
21109;BME280;10712;52.944;9.098;2023-07-02T02:33:41;100319.34;;;23.81;58.93
21109;BME280;10712;52.944;9.098;2023-07-02T02:36:07;100321.97;;;23.74;58.96
21109;BME280;10712;52.944;9.098;2023-07-02T02:38:33;100327.88;;;23.78;59.01
21109;BME280;10712;52.944;9.098;2023-07-02T02:41:01;100335.09;;;23.71;59.12
21109;BME280;10712;52.944;9.098;2023-07-02T02:43:30;100337.16;;;23.69;59.03
21109;BME280;10712;52.944;9.098;2023-07-02T02:45:57;100337.16;;;23.69;58.93
21109;BME280;10712;52.944;9.098;2023-07-02T02:48:23;100321.19;;;23.66;59.05
21109;BME280;10712;52.944;9.098;2023-07-02T02:50:49;100325.97;;;23.64;58.97
21109;BME280;10712;52.944;9.098;2023-07-02T02:53:15;100329.06;;;23.61;59.04
21109;BME280;10712;52.944;9.098;2023-07-02T02:55:41;100320.91;;;23.61;59.33
21109;BME280;10712;52.944;9.098;2023-07-02T02:58:07;100308.88;;;23.55;59.38
21109;BME280;10712;52.944;9.098;2023-07-02T03:00:33;100321.34;;;23.49;59.39
21109;BME280;10712;52.944;9.098;2023-07-02T03:03:00;100314.22;;;23.48;59.46
21109;BME280;10712;52.944;9.098;2023-07-02T03:05:26;100327.09;;;23.46;59.73
21109;BME280;10712;52.944;9.098;2023-07-02T03:07:52;100316.63;;;23.43;59.68
21109;BME280;10712;52.944;9.098;2023-07-02T03:10:18;100324.56;;;23.45;60.04
21109;BME280;10712;52.944;9.098;2023-07-02T03:12:44;100330.72;;;23.39;60.01
21109;BME280;10712;52.944;9.098;2023-07-02T03:15:10;100325.47;;;23.37;60.02
21109;BME280;10712;52.944;9.098;2023-07-02T03:17:36;100322.41;;;23.40;60.06
21109;BME280;10712;52.944;9.098;2023-07-02T03:20:03;100320.69;;;23.39;60.35
21109;BME280;10712;52.944;9.098;2023-07-02T03:22:33;100322.41;;;23.40;60.53
21109;BME280;10712;52.944;9.098;2023-07-02T03:25:00;100330.66;;;23.47;60.56
21109;BME280;10712;52.944;9.098;2023-07-02T03:27:25;100329.16;;;23.44;60.64
21109;BME280;10712;52.944;9.098;2023-07-02T03:29:52;100333.28;;;23.40;60.41
21109;BME280;10712;52.944;9.098;2023-07-02T03:32:18;100332.06;;;23.43;60.62
21109;BME280;10712;52.944;9.098;2023-07-02T03:34:44;100331.56;;;23.39;60.73
21109;BME280;10712;52.944;9.098;2023-07-02T03:37:10;100329.25;;;23.36;60.79
21109;BME280;10712;52.944;9.098;2023-07-02T03:39:35;100335.16;;;23.40;60.98
21109;BME280;10712;52.944;9.098;2023-07-02T03:42:01;100329.72;;;23.40;61.16
21109;BME280;10712;52.944;9.098;2023-07-02T03:44:27;100328.84;;;23.39;61.18
21109;BME280;10712;52.944;9.098;2023-07-02T03:46:53;100333.28;;;23.40;61.28
21109;BME280;10712;52.944;9.098;2023-07-02T03:49:19;100338.41;;;23.35;61.43
21109;BME280;10712;52.944;9.098;2023-07-02T03:51:45;100334.28;;;23.39;61.29
21109;BME280;10712;52.944;9.098;2023-07-02T03:54:10;100344.25;;;23.47;61.42
21109;BME280;10712;52.944;9.098;2023-07-02T03:56:36;100338.34;;;23.43;61.60
21109;BME280;10712;52.944;9.098;2023-07-02T03:59:02;100337.69;;;23.41;61.53
21109;BME280;10712;52.944;9.098;2023-07-02T04:01:28;100348.56;;;23.41;61.87
21109;BME280;10712;52.944;9.098;2023-07-02T04:03:55;100347.53;;;23.42;61.77
21109;BME280;10712;52.944;9.098;2023-07-02T04:06:21;100342.09;;;23.42;61.88
21109;BME280;10712;52.944;9.098;2023-07-02T04:08:47;100349.59;;;23.40;61.73
21109;BME280;10712;52.944;9.098;2023-07-02T04:11:13;100349.25;;;23.43;61.95
21109;BME280;10712;52.944;9.098;2023-07-02T04:13:39;100347.88;;;23.39;61.71
21109;BME280;10712;52.944;9.098;2023-07-02T04:16:05;100349.59;;;23.40;62.07
21109;BME280;10712;52.944;9.098;2023-07-02T04:18:32;100347.53;;;23.42;61.91
21109;BME280;10712;52.944;9.098;2023-07-02T04:20:58;100352.31;;;23.40;62.21
21109;BME280;10712;52.944;9.098;2023-07-02T04:23:25;100351.28;;;23.41;62.29
21109;BME280;10712;52.944;9.098;2023-07-02T04:25:51;100353.31;;;23.39;62.13
21109;BME280;10712;52.944;9.098;2023-07-02T04:28:17;100356.34;;;23.44;62.02
21109;BME280;10712;52.944;9.098;2023-07-02T04:30:43;100356.34;;;23.44;62.11
21109;BME280;10712;52.944;9.098;2023-07-02T04:33:09;100351.56;;;23.46;62.02
21109;BME280;10712;52.944;9.098;2023-07-02T04:35:35;100353.13;;;23.49;62.19
21109;BME280;10712;52.944;9.098;2023-07-02T04:38:01;100357.41;;;23.43;62.17
21109;BME280;10712;52.944;9.098;2023-07-02T04:40:27;100364.69;;;23.43;62.44
21109;BME280;10712;52.944;9.098;2023-07-02T04:42:53;100368.44;;;23.42;62.25
21109;BME280;10712;52.944;9.098;2023-07-02T04:45:25;100366.53;;;23.50;62.31
21109;BME280;10712;52.944;9.098;2023-07-02T04:47:51;100362.44;;;23.54;61.98
21109;BME280;10712;52.944;9.098;2023-07-02T04:50:18;100361.69;;;23.61;62.18
21109;BME280;10712;52.944;9.098;2023-07-02T04:52:44;100365.44;;;23.60;62.13
21109;BME280;10712;52.944;9.098;2023-07-02T04:55:10;100364.59;;;23.59;61.84
21109;BME280;10712;52.944;9.098;2023-07-02T04:57:37;100374.19;;;23.70;61.91
21109;BME280;10712;52.944;9.098;2023-07-02T05:00:04;100374.63;;;23.59;61.85
21109;BME280;10712;52.944;9.098;2023-07-02T05:02:31;100371.84;;;23.67;61.71
21109;BME280;10712;52.944;9.098;2023-07-02T05:04:57;100373.19;;;23.71;61.61
21109;BME280;10712;52.944;9.098;2023-07-02T05:07:23;100371.09;;;23.73;61.32
21109;BME280;10712;52.944;9.098;2023-07-02T05:09:49;100373.53;;;23.68;61.33
21109;BME280;10712;52.944;9.098;2023-07-02T05:12:18;100372.22;;;23.64;61.04
21109;BME280;10712;52.944;9.098;2023-07-02T05:14:43;100372.78;;;23.74;60.66
21109;BME280;10712;52.944;9.098;2023-07-02T05:17:09;100376.19;;;23.76;60.66
21109;BME280;10712;52.944;9.098;2023-07-02T05:19:35;100372.06;;;23.80;60.24
21109;BME280;10712;52.944;9.098;2023-07-02T05:22:01;100380.53;;;23.85;59.93
21109;BME280;10712;52.944;9.098;2023-07-02T05:24:27;100380.16;;;23.88;59.65
21109;BME280;10712;52.944;9.098;2023-07-02T05:26:52;100378.03;;;23.98;58.28
21109;BME280;10712;52.944;9.098;2023-07-02T05:29:19;100384.16;;;23.77;57.76
21109;BME280;10712;52.944;9.098;2023-07-02T05:31:44;100384.56;;;23.89;58.00
21109;BME280;10712;52.944;9.098;2023-07-02T05:34:10;100375.00;;;23.93;58.14
21109;BME280;10712;52.944;9.098;2023-07-02T05:36:37;100383.84;;;24.10;57.56
21109;BME280;10712;52.944;9.098;2023-07-02T05:39:03;100378.47;;;24.02;57.20
21109;BME280;10712;52.944;9.098;2023-07-02T05:41:29;100380.66;;;24.06;57.05
21109;BME280;10712;52.944;9.098;2023-07-02T05:43:59;100374.91;;;24.01;56.76
21109;BME280;10712;52.944;9.098;2023-07-02T05:46:25;100380.25;;;23.94;56.72
21109;BME280;10712;52.944;9.098;2023-07-02T05:48:51;100386.47;;;24.03;56.56
21109;BME280;10712;52.944;9.098;2023-07-02T05:51:21;100389.94;;;23.97;56.57
21109;BME280;10712;52.944;9.098;2023-07-02T05:53:47;100388.59;;;23.93;55.93
21109;BME280;10712;52.944;9.098;2023-07-02T05:56:13;100387.69;;;24.15;55.83
21109;BME280;10712;52.944;9.098;2023-07-02T05:58:39;100390.75;;;24.20;55.35
21109;BME280;10712;52.944;9.098;2023-07-02T06:01:05;100389.16;;;24.26;55.77
21109;BME280;10712;52.944;9.098;2023-07-02T06:03:31;100391.91;;;24.26;55.96
21109;BME280;10712;52.944;9.098;2023-07-02T06:05:57;100395.47;;;24.26;55.99
21109;BME280;10712;52.944;9.098;2023-07-02T06:08:23;100389.34;;;24.24;55.44
21109;BME280;10712;52.944;9.098;2023-07-02T06:10:49;100395.47;;;24.26;55.43
21109;BME280;10712;52.944;9.098;2023-07-02T06:13:16;100396.59;;;24.32;54.79
21109;BME280;10712;52.944;9.098;2023-07-02T06:15:42;100398.38;;;24.54;53.91
21109;BME280;10712;52.944;9.098;2023-07-02T06:18:08;100407.28;;;24.48;54.59
21109;BME280;10712;52.944;9.098;2023-07-02T06:20:34;100401.94;;;24.55;54.28
21109;BME280;10712;52.944;9.098;2023-07-02T06:22:59;100402.69;;;24.49;54.55
21109;BME280;10712;52.944;9.098;2023-07-02T06:25:26;100404.97;;;24.60;54.51
21109;BME280;10712;52.944;9.098;2023-07-02T06:27:51;100408.53;;;24.60;54.37
21109;BME280;10712;52.944;9.098;2023-07-02T06:30:21;100406.25;;;24.64;54.34
21109;BME280;10712;52.944;9.098;2023-07-02T06:32:47;100412.38;;;24.66;54.25
21109;BME280;10712;52.944;9.098;2023-07-02T06:35:13;100409.72;;;24.72;53.88
21109;BME280;10712;52.944;9.098;2023-07-02T06:37:39;100411.25;;;24.75;53.85
21109;BME280;10712;52.944;9.098;2023-07-02T06:40:06;100410.19;;;24.76;53.35
21109;BME280;10712;52.944;9.098;2023-07-02T06:42:32;100405.59;;;24.91;52.49
21109;BME280;10712;52.944;9.098;2023-07-02T06:44:58;100422.41;;;24.80;53.04
21109;BME280;10712;52.944;9.098;2023-07-02T06:47:24;100434.34;;;24.79;52.86
21109;BME280;10712;52.944;9.098;2023-07-02T06:49:52;100440.56;;;24.73;52.86
21109;BME280;10712;52.944;9.098;2023-07-02T06:52:18;100439.69;;;24.72;52.99
21109;BME280;10712;52.944;9.098;2023-07-02T06:54:44;100441.56;;;24.87;53.13
21109;BME280;10712;52.944;9.098;2023-07-02T06:57:10;100448.25;;;24.84;52.96
21109;BME280;10712;52.944;9.098;2023-07-02T06:59:35;100432.66;;;25.07;51.22
21109;BME280;10712;52.944;9.098;2023-07-02T07:02:02;100453.78;;;25.05;51.61
21109;BME280;10712;52.944;9.098;2023-07-02T07:04:28;100445.88;;;25.10;51.94
21109;BME280;10712;52.944;9.098;2023-07-02T07:06:54;100442.78;;;25.14;51.33
21109;BME280;10712;52.944;9.098;2023-07-02T07:09:21;100449.78;;;25.01;51.59
21109;BME280;10712;52.944;9.098;2023-07-02T07:11:47;100447.91;;;25.02;51.50
21109;BME280;10712;52.944;9.098;2023-07-02T07:14:13;100452.00;;;25.13;51.24
21109;BME280;10712;52.944;9.098;2023-07-02T07:16:39;100454.81;;;25.19;51.19
21109;BME280;10712;52.944;9.098;2023-07-02T07:19:05;100457.09;;;25.16;51.20
21109;BME280;10712;52.944;9.098;2023-07-02T07:21:31;100455.69;;;25.05;51.62
21109;BME280;10712;52.944;9.098;2023-07-02T07:23:57;100470.81;;;25.07;51.40
21109;BME280;10712;52.944;9.098;2023-07-02T07:26:23;100471.34;;;25.18;51.30
21109;BME280;10712;52.944;9.098;2023-07-02T07:28:49;100469.25;;;25.34;50.84
21109;BME280;10712;52.944;9.098;2023-07-02T07:31:15;100468.31;;;25.42;50.92
21109;BME280;10712;52.944;9.098;2023-07-02T07:33:40;100465.84;;;25.47;50.55
21109;BME280;10712;52.944;9.098;2023-07-02T07:36:06;100465.19;;;25.45;50.82
21109;BME280;10712;52.944;9.098;2023-07-02T07:38:32;100467.91;;;25.45;50.72
21109;BME280;10712;52.944;9.098;2023-07-02T07:40:58;100471.75;;;25.15;50.17
21109;BME280;10712;52.944;9.098;2023-07-02T07:43:24;100475.66;;;25.27;49.96
21109;BME280;10712;52.944;9.098;2023-07-02T07:45:49;100478.56;;;25.25;50.20
21109;BME280;10712;52.944;9.098;2023-07-02T07:48:15;100481.22;;;25.19;49.83
21109;BME280;10712;52.944;9.098;2023-07-02T07:50:41;100474.53;;;25.36;48.44
21109;BME280;10712;52.944;9.098;2023-07-02T07:53:07;100483.75;;;25.35;48.38
21109;BME280;10712;52.944;9.098;2023-07-02T07:55:33;100478.41;;;25.27;48.09
21109;BME280;10712;52.944;9.098;2023-07-02T07:57:58;100475.59;;;25.56;48.17
21109;BME280;10712;52.944;9.098;2023-07-02T08:00:24;100481.06;;;25.56;47.95
21109;BME280;10712;52.944;9.098;2023-07-02T08:02:51;100484.56;;;25.65;48.25
21109;BME280;10712;52.944;9.098;2023-07-02T08:05:18;100476.81;;;25.68;48.31
21109;BME280;10712;52.944;9.098;2023-07-02T08:07:44;100488.13;;;25.65;48.44
21109;BME280;10712;52.944;9.098;2023-07-02T08:10:10;100492.03;;;25.77;48.46
21109;BME280;10712;52.944;9.098;2023-07-02T08:12:36;100491.63;;;25.80;47.28
21109;BME280;10712;52.944;9.098;2023-07-02T08:15:02;100490.22;;;25.84;46.51
21109;BME280;10712;52.944;9.098;2023-07-02T08:17:28;100499.69;;;25.88;46.80
21109;BME280;10712;52.944;9.098;2023-07-02T08:19:57;100507.09;;;25.95;46.52
21109;BME280;10712;52.944;9.098;2023-07-02T08:22:23;100489.03;;;25.72;46.29
21109;BME280;10712;52.944;9.098;2023-07-02T08:24:49;100510.78;;;25.87;45.84
21109;BME280;10712;52.944;9.098;2023-07-02T08:27:16;100499.03;;;25.86;45.61
21109;BME280;10712;52.944;9.098;2023-07-02T08:29:46;100500.47;;;26.04;45.66
21109;BME280;10712;52.944;9.098;2023-07-02T08:32:12;100503.47;;;26.09;45.54
21109;BME280;10712;52.944;9.098;2023-07-02T08:34:38;100486.50;;;26.13;45.60
21109;BME280;10712;52.944;9.098;2023-07-02T08:37:04;100501.88;;;26.21;45.69
21109;BME280;10712;52.944;9.098;2023-07-02T08:39:29;100505.47;;;26.21;45.60
21109;BME280;10712;52.944;9.098;2023-07-02T08:41:55;100507.66;;;26.26;46.35
21109;BME280;10712;52.944;9.098;2023-07-02T08:44:21;100507.34;;;26.42;44.36
21109;BME280;10712;52.944;9.098;2023-07-02T08:46:48;100522.00;;;26.13;43.98
21109;BME280;10712;52.944;9.098;2023-07-02T08:49:18;100515.00;;;26.25;45.13
21109;BME280;10712;52.944;9.098;2023-07-02T08:51:46;100515.84;;;26.26;44.09
21109;BME280;10712;52.944;9.098;2023-07-02T08:54:12;100512.03;;;26.48;43.80
21109;BME280;10712;52.944;9.098;2023-07-02T08:56:39;100514.25;;;26.38;43.01
21109;BME280;10712;52.944;9.098;2023-07-02T08:59:09;100513.47;;;26.44;43.14
21109;BME280;10712;52.944;9.098;2023-07-02T09:01:51;100530.38;;;26.54;43.80
21109;BME280;10712;52.944;9.098;2023-07-02T09:04:25;100515.44;;;26.57;43.16
21109;BME280;10712;52.944;9.098;2023-07-02T09:07:08;100525.97;;;26.32;42.58
21109;BME280;10712;52.944;9.098;2023-07-02T09:09:50;100526.53;;;26.49;43.34
21109;BME280;10712;52.944;9.098;2023-07-02T09:12:42;100524.81;;;26.41;44.30
21109;BME280;10712;52.944;9.098;2023-07-02T09:15:08;100535.50;;;26.43;44.19
21109;BME280;10712;52.944;9.098;2023-07-02T09:17:36;100536.50;;;26.35;44.36
21109;BME280;10712;52.944;9.098;2023-07-02T09:20:06;100548.06;;;26.16;44.31
21109;BME280;10712;52.944;9.098;2023-07-02T09:22:36;100543.38;;;26.10;44.04
21109;BME280;10712;52.944;9.098;2023-07-02T09:25:03;100547.41;;;25.93;44.50
21109;BME280;10712;52.944;9.098;2023-07-02T09:27:39;100557.94;;;25.96;44.43
21109;BME280;10712;52.944;9.098;2023-07-02T09:30:11;100556.63;;;25.92;44.67
21109;BME280;10712;52.944;9.098;2023-07-02T09:32:43;100546.63;;;25.99;44.93
21109;BME280;10712;52.944;9.098;2023-07-02T09:35:10;100551.56;;;25.88;45.17
21109;BME280;10712;52.944;9.098;2023-07-02T09:37:36;100550.84;;;26.01;45.15
21109;BME280;10712;52.944;9.098;2023-07-02T09:40:03;100553.91;;;26.13;45.16
21109;BME280;10712;52.944;9.098;2023-07-02T09:42:35;100548.63;;;26.26;45.02
21109;BME280;10712;52.944;9.098;2023-07-02T09:45:02;100547.63;;;26.34;45.36
21109;BME280;10712;52.944;9.098;2023-07-02T09:47:29;100535.81;;;26.26;44.81
21109;BME280;10712;52.944;9.098;2023-07-02T09:50:04;100536.84;;;26.25;45.16
21109;BME280;10712;52.944;9.098;2023-07-02T09:52:35;100544.56;;;26.43;45.67
21109;BME280;10712;52.944;9.098;2023-07-02T09:55:01;100536.03;;;26.53;45.59
21109;BME280;10712;52.944;9.098;2023-07-02T09:57:29;100540.00;;;26.50;44.79
21109;BME280;10712;52.944;9.098;2023-07-02T09:59:59;100540.06;;;26.36;45.00
21109;BME280;10712;52.944;9.098;2023-07-02T10:02:25;100547.53;;;26.06;43.95
21109;BME280;10712;52.944;9.098;2023-07-02T10:04:51;100553.00;;;26.06;43.68
21109;BME280;10712;52.944;9.098;2023-07-02T10:07:31;100551.81;;;25.94;43.51
21109;BME280;10712;52.944;9.098;2023-07-02T10:10:00;100550.13;;;26.14;43.86
21109;BME280;10712;52.944;9.098;2023-07-02T10:12:28;100552.03;;;25.92;43.40
21109;BME280;10712;52.944;9.098;2023-07-02T10:14:56;100557.84;;;25.89;44.86
21109;BME280;10712;52.944;9.098;2023-07-02T10:17:35;100566.41;;;26.43;44.24
21109;BME280;10712;52.944;9.098;2023-07-02T10:20:07;100564.81;;;26.55;44.01
21109;BME280;10712;52.944;9.098;2023-07-02T10:22:48;100551.91;;;26.71;43.66
21109;BME280;10712;52.944;9.098;2023-07-02T10:25:26;100557.28;;;26.57;42.49
21109;BME280;10712;52.944;9.098;2023-07-02T10:27:52;100557.28;;;26.57;41.88
21109;BME280;10712;52.944;9.098;2023-07-02T10:30:18;100557.38;;;26.71;42.17
21109;BME280;10712;52.944;9.098;2023-07-02T10:32:44;100558.19;;;26.64;42.32
21109;BME280;10712;52.944;9.098;2023-07-02T10:35:19;100564.81;;;26.55;43.26
21109;BME280;10712;52.944;9.098;2023-07-02T10:37:45;100584.75;;;26.49;43.76
21109;BME280;10712;52.944;9.098;2023-07-02T10:40:12;100578.78;;;26.39;44.78
21109;BME280;10712;52.944;9.098;2023-07-02T10:42:49;100580.59;;;26.32;45.75
21109;BME280;10712;52.944;9.098;2023-07-02T10:45:16;100568.09;;;26.44;45.64
21109;BME280;10712;52.944;9.098;2023-07-02T10:47:42;100575.75;;;26.55;46.46
21109;BME280;10712;52.944;9.098;2023-07-02T10:50:17;100576.59;;;26.56;46.58
21109;BME280;10712;52.944;9.098;2023-07-02T10:52:43;100570.00;;;26.72;45.82
21109;BME280;10712;52.944;9.098;2023-07-02T10:55:09;100556.59;;;26.77;46.23
21109;BME280;10712;52.944;9.098;2023-07-02T10:57:35;100568.16;;;27.00;46.50
21109;BME280;10712;52.944;9.098;2023-07-02T11:00:06;100567.22;;;27.21;46.56
21109;BME280;10712;52.944;9.098;2023-07-02T11:02:39;100570.06;;;27.40;46.19
21109;BME280;10712;52.944;9.098;2023-07-02T11:05:07;100564.59;;;27.40;44.47
21109;BME280;10712;52.944;9.098;2023-07-02T11:07:41;100565.88;;;27.38;43.45
21109;BME280;10712;52.944;9.098;2023-07-02T11:10:09;100567.50;;;27.32;43.51
21109;BME280;10712;52.944;9.098;2023-07-02T11:12:36;100577.81;;;27.30;43.72
21109;BME280;10712;52.944;9.098;2023-07-02T11:15:17;100581.25;;;27.11;43.41
21109;BME280;10712;52.944;9.098;2023-07-02T11:17:46;100573.22;;;27.03;43.00
21109;BME280;10712;52.944;9.098;2023-07-02T11:20:13;100582.28;;;27.03;43.03
21109;BME280;10712;52.944;9.098;2023-07-02T11:22:40;100582.47;;;27.02;43.49
21109;BME280;10712;52.944;9.098;2023-07-02T11:25:17;100576.88;;;26.89;43.57
21109;BME280;10712;52.944;9.098;2023-07-02T11:27:44;100590.47;;;26.76;44.51
21109;BME280;10712;52.944;9.098;2023-07-02T11:30:12;100594.00;;;26.76;44.56
21109;BME280;10712;52.944;9.098;2023-07-02T11:32:49;100581.97;;;26.92;44.47
21109;BME280;10712;52.944;9.098;2023-07-02T11:35:16;100582.81;;;26.92;44.19
21109;BME280;10712;52.944;9.098;2023-07-02T11:37:43;100590.13;;;27.13;43.97
21109;BME280;10712;52.944;9.098;2023-07-02T11:40:09;100586.91;;;27.37;43.35
21109;BME280;10712;52.944;9.098;2023-07-02T11:42:35;100583.59;;;27.49;42.65
21109;BME280;10712;52.944;9.098;2023-07-02T11:45:01;100595.34;;;27.42;41.64
21109;BME280;10712;52.944;9.098;2023-07-02T11:47:27;100586.84;;;27.24;41.47
21109;BME280;10712;52.944;9.098;2023-07-02T11:49:53;100601.47;;;27.10;41.24
21109;BME280;10712;52.944;9.098;2023-07-02T11:52:21;100588.06;;;27.22;41.13
21109;BME280;10712;52.944;9.098;2023-07-02T11:54:48;100601.47;;;27.10;40.98
21109;BME280;10712;52.944;9.098;2023-07-02T11:57:14;100610.94;;;27.14;41.23
21109;BME280;10712;52.944;9.098;2023-07-02T11:59:41;100611.19;;;27.19;41.35
21109;BME280;10712;52.944;9.098;2023-07-02T12:02:07;100614.97;;;27.18;42.10
21109;BME280;10712;52.944;9.098;2023-07-02T12:04:33;100615.47;;;27.28;42.27
21109;BME280;10712;52.944;9.098;2023-07-02T12:07:01;100612.97;;;27.33;41.90
21109;BME280;10712;52.944;9.098;2023-07-02T12:09:29;100609.63;;;27.38;41.76
21109;BME280;10712;52.944;9.098;2023-07-02T12:11:55;100623.09;;;27.39;41.68
21109;BME280;10712;52.944;9.098;2023-07-02T12:14:21;100620.34;;;27.39;41.18
21109;BME280;10712;52.944;9.098;2023-07-02T12:16:46;100626.41;;;27.28;41.06
21109;BME280;10712;52.944;9.098;2023-07-02T12:19:12;100618.28;;;27.41;41.30
21109;BME280;10712;52.944;9.098;2023-07-02T12:21:38;100616.41;;;27.49;41.15
21109;BME280;10712;52.944;9.098;2023-07-02T12:24:04;100614.59;;;27.56;40.90
21109;BME280;10712;52.944;9.098;2023-07-02T12:26:37;100620.19;;;27.48;40.57
21109;BME280;10712;52.944;9.098;2023-07-02T12:29:04;100621.03;;;27.48;40.25
21109;BME280;10712;52.944;9.098;2023-07-02T12:31:31;100623.66;;;27.28;40.79
21109;BME280;10712;52.944;9.098;2023-07-02T12:33:57;100624.59;;;27.08;40.73
21109;BME280;10712;52.944;9.098;2023-07-02T12:36:25;100622.31;;;27.18;40.81
21109;BME280;10712;52.944;9.098;2023-07-02T12:38:51;100634.38;;;27.23;41.10
21109;BME280;10712;52.944;9.098;2023-07-02T12:41:16;100645.28;;;27.17;41.41
21109;BME280;10712;52.944;9.098;2023-07-02T12:43:42;100644.00;;;27.19;41.71
21109;BME280;10712;52.944;9.098;2023-07-02T12:46:08;100654.47;;;27.09;42.17
21109;BME280;10712;52.944;9.098;2023-07-02T12:48:34;100663.47;;;27.03;42.57
21109;BME280;10712;52.944;9.098;2023-07-02T12:51:00;100658.47;;;27.13;42.79